Time;durP1;ratioP1;P1;durP2;ratioP2;P2;SDS_P1;SDS_P2;PMS_P1;PMS_P2;Temp;Humidity;BMP_temperature;BMP_pressure;BME280_temperature;BME280_humidity;BME280_pressure;Samples;Min_cycle;Max_cycle;Signal;HPM_P1;HPM_P2
2023/10/12 05:23:11;;;;;;;20.13;9.95;;;12.10;99.90;;;;;;5104733;27;20668;-78
2023/10/12 05:28:27;;;;;;;29.87;12.03;;;11.70;99.90;;;;;;5091630;28;20024;-81
2023/10/12 13:56:34;;;;;;;19.00;12.75;;;;;;;;;;5180889;27;20322;-86
2023/10/12 13:59:00;;;;;;;19.95;13.90;;;;;;;;;;5134329;27;20023;-86
2023/10/12 14:01:36;;;;;;;21.33;14.75;;;;;;;;;;5141479;27;20448;-86
2023/10/12 14:04:22;;;;;;;27.65;14.18;;;;;;;;;;5155294;27;20420;-86
2023/10/12 14:07:13;;;;;;;19.00;11.93;;;;;;;;;;5173732;27;20475;-87
2023/10/12 14:10:20;;;;;;;24.00;13.73;;;;;;;;;;5149325;27;20337;-89
2023/10/12 14:12:46;;;;;;;25.23;14.55;;;;;;;;;;5145926;27;20038;-88
2023/10/12 14:15:43;;;;;;;22.70;12.57;;;;;;;;;;5139552;27;20099;-87
2023/10/12 14:18:16;;;;;;;21.15;12.45;;;;;;;;;;5152549;27;20069;-88
2023/10/12 14:20:42;;;;;;;23.17;13.65;;;;;;;;;;5154610;27;20094;-88
2023/10/12 14:23:11;;;;;;;27.30;11.23;;;;;;;;;;5154392;27;20042;-88
2023/10/12 14:25:38;;;;;;;18.13;12.23;;;;;;;;;;5154860;27;20023;-88
2023/10/12 14:28:07;;;;;;;21.83;11.85;;;;;;;;;;5154423;27;20490;-88
2023/10/12 14:30:34;;;;;;;18.80;10.65;;;;;;;;;;5154617;27;20023;-89
2023/10/12 14:33:07;;;;;;;20.25;11.23;;;;;;;;;;5154909;27;20135;-88
2023/10/12 14:35:40;;;;;;;17.55;12.02;;;;;;;;;;5154424;27;20428;-87
2023/10/12 14:38:08;;;;;;;19.33;10.32;;;;;;;;;;5154582;27;20014;-89
2023/10/12 14:40:40;;;;;;;15.82;11.00;;;;;;;;;;5154373;27;20113;-87
2023/10/12 14:43:10;;;;;;;14.77;10.88;;;;;;;;;;5148342;27;20084;-88
2023/10/12 14:45:38;;;;;;;22.60;12.65;;;;;;;;;;5164293;27;20409;-88
2023/10/12 14:48:09;;;;;;;16.55;12.15;;;;;;;;;;5154490;27;20097;-89
2023/10/12 14:50:38;;;;;;;18.50;11.48;;;;;;;;;;5135815;27;20022;-88
2023/10/12 14:53:10;;;;;;;23.45;11.98;;;;;;;;;;5133655;27;20023;-89
2023/10/12 14:55:40;;;;;;;22.52;10.90;;;;;;;;;;5149187;27;20046;-88
2023/10/12 14:58:07;;;;;;;16.25;9.65;;;;;;;;;;5173180;27;20025;-89
2023/10/12 15:00:36;;;;;;;24.33;10.82;;;;;;;;;;5144178;27;20025;-88
2023/10/12 15:03:04;;;;;;;21.60;10.32;;;;;;;;;;5146494;27;20019;-89
2023/10/12 15:05:32;;;;;;;25.92;11.13;;;;;;;;;;5148811;27;20022;-89
2023/10/12 15:07:59;;;;;;;19.80;11.85;;;;;;;;;;5139637;27;20011;-88
2023/10/12 15:10:25;;;;;;;23.80;10.82;;;;;;;;;;5140232;27;20110;-87
2023/10/12 15:12:51;;;;;;;20.20;12.30;;;;;;;;;;5139742;27;20027;-89
2023/10/12 15:15:27;;;;;;;19.98;12.05;;;;;;;;;;5127899;27;20026;-88
2023/10/12 15:17:54;;;;;;;32.15;13.02;;;;;;;;;;5129447;27;20098;-87
2023/10/12 15:20:23;;;;;;;23.92;11.10;;;;;;;;;;5129391;27;20054;-87
2023/10/12 15:22:49;;;;;;;18.80;11.10;;;;;;;;;;5122040;27;20015;-87
2023/10/12 15:25:19;;;;;;;21.02;11.88;;;;;;;;;;5124452;27;20071;-88
2023/10/12 15:27:46;;;;;;;30.45;14.38;;;;;;;;;;5139368;27;20110;-88
2023/10/12 15:30:14;;;;;;;22.77;12.43;;;;;;;;;;5139750;27;20103;-88
2023/10/12 15:32:43;;;;;;;27.38;13.43;;;;;;;;;;5139579;27;20079;-88
2023/10/12 15:35:11;;;;;;;21.60;13.70;;;;;;;;;;5127675;27;20026;-89
2023/10/12 15:37:46;;;;;;;29.88;13.43;;;;;;;;;;5134373;27;20023;-89
2023/10/12 15:40:25;;;;;;;33.00;13.00;;;;;;;;;;5139435;27;20360;-89
2023/10/12 15:42:55;;;;;;;32.00;9.80;;;;;;;;;;5137192;27;20026;-88
2023/10/12 16:08:18;;;;;;;42.60;18.30;;;23.00;68.50;;;;;;5111053;27;20385;-84
2023/10/12 16:10:48;;;;;;;49.97;16.13;;;22.70;70.00;;;;;;5110409;28;20024;-84
2023/10/12 16:13:17;;;;;;;49.43;14.00;;;22.50;72.40;;;;;;5109952;28;20024;-85
2023/10/12 16:15:43;;;;;;;57.28;15.23;;;22.40;73.50;;;;;;5109841;28;20023;-84
2023/10/12 16:18:09;;;;;;;43.60;14.50;;;22.30;74.20;;;;;;5111474;28;20030;-84
2023/10/12 16:20:35;;;;;;;50.67;15.77;;;22.20;75.50;;;;;;5109959;28;20015;-83
2023/10/12 16:23:01;;;;;;;45.05;14.73;;;22.20;76.20;;;;;;5110195;28;20032;-83
2023/10/12 16:25:28;;;;;;;43.95;13.75;;;22.10;77.00;;;;;;5108410;28;20453;-83
2023/10/12 16:27:58;;;;;;;38.47;13.68;;;22.00;77.80;;;;;;5107877;28;20040;-84
2023/10/12 16:30:26;;;;;;;53.17;13.77;;;21.90;78.20;;;;;;5109827;28;20077;-82
2023/10/12 16:32:54;;;;;;;48.35;12.85;;;21.90;78.80;;;;;;5091001;28;20481;-82
2023/10/12 16:35:25;;;;;;;46.88;16.20;;;21.80;80.60;;;;;;5108780;28;20031;-81
2023/10/12 16:37:56;;;;;;;51.42;16.92;;;21.70;81.10;;;;;;5106956;28;20023;-83
2023/10/12 16:40:25;;;;;;;61.38;16.63;;;21.60;82.00;;;;;;5107837;28;20051;-83
2023/10/12 16:42:51;;;;;;;45.95;14.32;;;21.60;82.90;;;;;;5107600;28;20623;-84
2023/10/12 16:45:18;;;;;;;66.55;23.90;;;21.50;84.90;;;;;;5109659;28;20458;-84
2023/10/12 16:47:45;;;;;;;83.05;34.03;;;21.40;86.30;;;;;;5105846;28;20477;-84
2023/10/12 16:50:12;;;;;;;78.03;31.30;;;21.40;88.00;;;;;;5107818;28;20065;-83
2023/10/12 16:52:38;;;;;;;84.72;27.00;;;21.40;89.60;;;;;;5107242;28;20055;-87
2023/10/12 16:55:06;;;;;;;75.35;24.08;;;21.30;91.80;;;;;;5108179;28;20028;-84
2023/10/12 16:57:32;;;;;;;63.42;23.35;;;21.20;96.40;;;;;;5109571;28;20042;-84
2023/10/12 16:59:58;;;;;;;61.25;22.02;;;21.20;97.80;;;;;;5109992;28;20019;-86
2023/10/12 17:02:24;;;;;;;70.30;23.58;;;21.10;99.30;;;;;;5109616;28;20032;-85
2023/10/12 17:04:54;;;;;;;68.88;25.88;;;21.00;99.90;;;;;;5109743;28;20028;-85
2023/10/12 17:07:23;;;;;;;71.88;22.60;;;20.90;99.90;;;;;;5109474;28;20465;-86
2023/10/12 17:09:58;;;;;;;60.50;21.25;;;20.90;99.90;;;;;;5109375;28;20362;-86
2023/10/12 17:12:25;;;;;;;56.30;22.88;;;20.80;99.90;;;;;;5103464;28;20024;-85
2023/10/12 17:14:51;;;;;;;62.63;19.98;;;20.70;99.90;;;;;;5096932;28;20023;-86
2023/10/12 17:17:20;;;;;;;56.58;18.95;;;20.70;99.90;;;;;;5108223;28;20038;-85
2023/10/12 17:19:47;;;;;;;63.83;18.42;;;20.60;99.90;;;;;;5097169;28;20347;-84
2023/10/12 17:22:14;;;;;;;47.88;19.40;;;20.50;99.90;;;;;;5099643;28;20027;-85
2023/10/12 17:24:43;;;;;;;91.40;39.55;;;20.50;99.90;;;;;;5075378;28;20457;-83
2023/10/12 17:27:11;;;;;;;108.82;51.67;;;20.40;99.90;;;;;;5092140;28;20058;-84
2023/10/12 17:29:36;;;;;;;104.85;46.97;;;20.30;99.90;;;;;;5094635;28;20032;-84
2023/10/12 17:32:07;;;;;;;87.90;38.03;;;20.20;99.90;;;;;;5095924;28;20035;-85
2023/10/12 17:34:32;;;;;;;83.32;33.75;;;20.20;99.90;;;;;;5094836;28;20031;-86
2023/10/12 17:36:58;;;;;;;63.72;29.45;;;20.10;99.90;;;;;;5093760;28;20377;-86
2023/10/12 17:39:28;;;;;;;57.92;27.05;;;20.00;99.90;;;;;;5096339;28;20028;-85
2023/10/12 17:41:55;;;;;;;55.25;26.80;;;20.00;99.90;;;;;;5095731;28;20031;-84
2023/10/12 17:44:23;;;;;;;51.03;19.83;;;19.90;99.90;;;;;;5098775;28;20020;-85
2023/10/12 17:46:49;;;;;;;43.00;18.73;;;19.80;99.90;;;;;;5095526;28;20418;-84
2023/10/12 17:49:16;;;;;;;39.63;18.30;;;19.80;99.90;;;;;;5094835;28;20036;-86
2023/10/12 17:51:44;;;;;;;44.25;18.95;;;19.70;99.90;;;;;;5094539;28;20077;-85
2023/10/12 17:54:13;;;;;;;52.70;18.95;;;19.60;99.90;;;;;;5096160;28;20024;-85
2023/10/12 17:56:44;;;;;;;64.20;23.55;;;19.60;99.90;;;;;;5094663;28;20458;-86
2023/10/12 17:59:10;;;;;;;106.72;36.28;;;19.60;99.90;;;;;;5094237;28;20035;-85
2023/10/12 18:01:37;;;;;;;93.05;34.17;;;19.50;99.90;;;;;;5094381;28;20020;-87
2023/10/12 18:04:04;;;;;;;120.43;45.92;;;19.40;99.90;;;;;;5094604;28;20515;-84
2023/10/12 18:06:32;;;;;;;133.60;48.83;;;19.30;99.90;;;;;;5095053;28;20490;-84
2023/10/12 18:08:58;;;;;;;137.38;50.78;;;19.30;99.90;;;;;;5072710;28;20033;-85
2023/10/12 18:11:25;;;;;;;128.02;42.63;;;19.30;99.90;;;;;;5056167;28;20032;-86
2023/10/12 18:13:53;;;;;;;119.93;42.35;;;19.20;99.90;;;;;;5072436;28;20075;-84
2023/10/12 18:16:19;;;;;;;117.47;37.60;;;19.20;99.90;;;;;;5055101;28;20032;-87
2023/10/12 18:18:45;;;;;;;96.07;33.17;;;19.20;99.90;;;;;;5061995;28;20040;-85
2023/10/12 18:21:12;;;;;;;65.65;26.10;;;19.10;99.90;;;;;;5055581;28;20044;-86
2023/10/12 18:23:39;;;;;;;71.00;25.27;;;19.10;99.90;;;;;;5056051;28;20017;-86
2023/10/12 18:26:09;;;;;;;63.67;22.65;;;19.10;99.90;;;;;;5055451;28;20115;-85
2023/10/12 18:28:37;;;;;;;60.92;23.85;;;19.00;99.90;;;;;;5072829;28;20020;-86
2023/10/12 18:31:05;;;;;;;61.50;26.35;;;19.00;99.90;;;;;;5054937;28;20532;-85
2023/10/12 18:33:33;;;;;;;85.32;28.75;;;18.90;99.90;;;;;;5055741;28;20558;-86
2023/10/12 18:36:00;;;;;;;81.32;29.95;;;18.90;99.90;;;;;;5057326;28;20024;-86
2023/10/12 18:38:27;;;;;;;73.05;28.85;;;18.80;99.90;;;;;;5055694;28;20025;-88
2023/10/12 18:40:53;;;;;;;76.43;27.33;;;18.80;99.90;;;;;;5055634;28;20063;-86
2023/10/12 18:43:18;;;;;;;72.15;27.88;;;18.70;99.90;;;;;;5072144;28;20401;-85
2023/10/12 18:45:56;;;;;;;71.88;26.80;;;18.70;99.90;;;;;;5061871;28;20036;-85
2023/10/12 18:48:25;;;;;;;60.30;25.60;;;18.60;99.90;;;;;;5095137;28;20024;-85
2023/10/12 18:51:05;;;;;;;53.20;22.00;;;18.60;99.90;;;;;;5094116;28;20031;-85
2023/10/12 18:53:34;;;;;;;64.07;24.45;;;18.60;99.90;;;;;;5094820;28;20414;-84
2023/10/12 18:56:01;;;;;;;82.72;30.92;;;18.50;99.90;;;;;;5093564;28;20458;-85
2023/10/12 18:58:30;;;;;;;107.50;36.28;;;18.50;99.90;;;;;;5092095;28;20092;-86
2023/10/12 19:00:58;;;;;;;117.90;43.70;;;18.40;99.90;;;;;;5081019;28;20020;-86
2023/10/12 19:03:28;;;;;;;131.70;45.95;;;18.40;99.90;;;;;;5093902;28;20073;-87
2023/10/12 19:05:54;;;;;;;114.63;39.05;;;18.30;99.90;;;;;;5087672;28;20074;-86
2023/10/12 19:08:25;;;;;;;105.45;39.97;;;18.30;99.90;;;;;;5092631;28;20024;-87
2023/10/12 19:10:51;;;;;;;86.43;33.85;;;18.20;99.90;;;;;;5093408;28;20051;-87
2023/10/12 21:26:51;;;;;;;35.55;16.35;;;16.00;99.90;;;;;;5113547;27;20196;-85
2023/10/12 21:29:21;;;;;;;35.97;16.60;;;15.80;99.90;;;;;;5111446;28;20163;-86
2023/10/12 21:31:57;;;;;;;40.80;17.27;;;15.80;99.90;;;;;;5093076;28;20126;-86
2023/10/12 21:34:25;;;;;;;43.65;17.25;;;15.80;99.90;;;;;;5093550;28;20126;-86
2023/10/12 21:36:52;;;;;;;33.97;15.70;;;15.80;99.90;;;;;;5093060;28;20073;-86
2023/10/12 21:39:41;;;;;;;29.42;15.30;;;15.80;99.90;;;;;;5093015;28;20026;-87
2023/10/12 21:42:11;;;;;;;39.22;15.90;;;15.80;99.90;;;;;;5111309;28;20023;-86
2023/10/12 21:44:39;;;;;;;34.22;15.60;;;15.80;99.90;;;;;;5093264;28;20024;-85
2023/10/12 21:47:06;;;;;;;26.23;13.95;;;15.90;99.90;;;;;;5094106;28;20039;-86
2023/10/12 21:49:32;;;;;;;28.00;13.32;;;15.80;99.90;;;;;;5112591;28;20471;-86
2023/10/12 21:51:59;;;;;;;25.05;13.25;;;15.80;99.90;;;;;;5092819;28;20024;-85
2023/10/12 21:54:27;;;;;;;35.60;13.40;;;15.80;99.90;;;;;;5092752;28;20450;-86
2023/10/12 21:56:58;;;;;;;35.75;14.23;;;15.80;99.90;;;;;;5092334;28;20065;-85
2023/10/12 21:59:23;;;;;;;39.22;14.77;;;15.80;99.90;;;;;;5110796;28;20043;-86
2023/10/12 22:01:50;;;;;;;36.55;14.43;;;15.80;99.90;;;;;;5092697;28;20027;-84
2023/10/12 22:04:22;;;;;;;33.50;13.50;;;15.70;99.90;;;;;;5092325;28;20023;-86
2023/10/12 22:06:49;;;;;;;33.22;14.60;;;15.70;99.90;;;;;;5092554;28;20024;-84
2023/10/12 22:12:02;;;;;;;29.02;14.07;;;15.70;99.90;;;;;;5067731;28;20235;-85
2023/10/12 22:17:08;;;;;;;26.52;13.35;;;15.60;99.90;;;;;;5067536;28;20116;-86
2023/10/12 22:19:34;;;;;;;39.60;15.18;;;15.60;99.90;;;;;;5064320;28;20065;-86
2023/10/12 22:21:59;;;;;;;29.55;15.15;;;15.50;99.90;;;;;;5064298;28;20044;-85
2023/10/12 22:24:25;;;;;;;31.65;14.70;;;15.50;99.90;;;;;;5067663;28;20032;-85
2023/10/12 22:26:54;;;;;;;25.15;15.05;;;15.50;99.90;;;;;;5067535;28;20446;-86
2023/10/12 22:29:19;;;;;;;34.38;13.68;;;15.50;99.90;;;;;;5067458;28;20036;-86
2023/10/12 22:31:45;;;;;;;34.17;14.50;;;15.50;99.90;;;;;;5067187;28;20074;-85
2023/10/12 22:34:16;;;;;;;27.95;14.50;;;15.50;99.90;;;;;;5050878;28;20067;-86
2023/10/12 22:36:49;;;;;;;29.65;14.43;;;15.50;99.90;;;;;;5062427;28;20041;-86
2023/10/12 22:39:16;;;;;;;33.08;13.90;;;15.40;99.90;;;;;;5044463;28;20120;-85
2023/10/12 22:41:49;;;;;;;32.30;13.43;;;15.40;99.90;;;;;;5078759;28;20508;-86
2023/10/12 22:44:19;;;;;;;34.13;15.48;;;15.40;99.90;;;;;;5078917;28;20473;-85
2023/10/12 22:46:45;;;;;;;33.17;15.20;;;15.40;99.90;;;;;;5078501;28;20036;-86
2023/10/12 22:49:14;;;;;;;28.10;15.30;;;15.40;99.90;;;;;;5096799;28;20107;-86
2023/10/12 22:51:42;;;;;;;33.78;15.40;;;15.40;99.90;;;;;;5078568;28;20111;-85
2023/10/12 22:54:08;;;;;;;30.77;15.50;;;15.40;99.90;;;;;;5078231;28;20351;-85
2023/10/12 22:56:34;;;;;;;30.42;14.80;;;15.40;99.90;;;;;;5097032;28;20461;-86
2023/10/12 22:59:00;;;;;;;27.42;17.45;;;15.30;99.90;;;;;;5096240;28;20039;-85
2023/10/12 23:01:27;;;;;;;28.67;14.13;;;15.40;99.90;;;;;;5078712;28;20442;-85
2023/10/12 23:03:53;;;;;;;33.78;14.90;;;15.30;99.90;;;;;;5078767;28;20027;-86
2023/10/12 23:06:21;;;;;;;26.95;14.13;;;15.30;99.90;;;;;;5078021;28;20028;-85
2023/10/12 23:08:48;;;;;;;26.13;14.90;;;15.30;99.90;;;;;;5078485;28;20020;-84
2023/10/12 23:11:18;;;;;;;29.42;14.65;;;15.20;99.90;;;;;;5078801;28;20403;-85
2023/10/12 23:13:51;;;;;;;30.63;14.07;;;15.20;99.90;;;;;;5078267;28;20028;-85
2023/10/12 23:16:30;;;;;;;36.97;17.77;;;15.10;99.90;;;;;;5096601;28;20031;-85
2023/10/12 23:19:00;;;;;;;36.75;15.82;;;15.10;99.90;;;;;;5078281;28;20028;-85
2023/10/12 23:21:38;;;;;;;39.05;15.77;;;15.10;99.90;;;;;;5078125;28;20055;-85
2023/10/12 23:24:20;;;;;;;30.55;15.60;;;15.10;99.90;;;;;;5078213;28;20024;-85
2023/10/12 23:26:49;;;;;;;37.38;16.55;;;15.20;99.90;;;;;;5075508;28;20492;-85
2023/10/12 23:29:16;;;;;;;27.80;15.98;;;15.10;99.90;;;;;;5060067;28;20134;-84
2023/10/12 23:31:42;;;;;;;39.38;17.75;;;15.10;99.90;;;;;;5096199;28;20042;-84
2023/10/12 23:36:46;;;;;;;31.95;16.77;;;15.00;99.90;;;;;;5095953;28;20028;-83
2023/10/12 23:39:16;;;;;;;34.47;16.50;;;15.00;99.90;;;;;;5091772;28;20028;-86
2023/10/12 23:41:50;;;;;;;32.47;16.95;;;15.00;99.90;;;;;;5066559;28;20373;-84
2023/10/12 23:46:51;;;;;;;41.25;17.52;;;15.00;99.90;;;;;;5095743;28;20474;-84
2023/10/12 23:49:20;;;;;;;40.08;18.40;;;15.00;99.90;;;;;;5094908;28;20021;-84
2023/10/12 23:51:49;;;;;;;48.35;17.58;;;15.00;99.90;;;;;;5080426;28;20027;-84
2023/10/12 23:54:18;;;;;;;34.67;17.50;;;14.90;99.90;;;;;;5077495;28;20338;-84
2023/10/12 23:56:53;;;;;;;37.50;17.90;;;15.00;99.90;;;;;;5076770;28;20043;-84
2023/10/12 23:59:20;;;;;;;38.88;18.38;;;14.90;99.90;;;;;;5077423;28;20119;-83
